sensor_id;sensor_type;location;lat;lon;timestamp;pressure;altitude;pressure_sealevel;temperature;humidity
21547;BME280;41275;51.912;4.388;2022-08-19T00:04:18;101338.94;;;25.78;49.35
21547;BME280;41275;51.912;4.388;2022-08-19T00:09:39;101347.66;;;25.75;50.01
21547;BME280;41275;51.912;4.388;2022-08-19T00:15:00;101350.22;;;25.71;50.44
21547;BME280;41275;51.912;4.388;2022-08-19T00:20:22;101354.66;;;25.67;50.94
21547;BME280;41275;51.912;4.388;2022-08-19T00:25:43;101355.47;;;25.68;51.29
21547;BME280;41275;51.912;4.388;2022-08-19T00:31:06;101353.75;;;25.81;51.03
21547;BME280;41275;51.912;4.388;2022-08-19T00:36:28;101357.75;;;25.83;51.04
21547;BME280;41275;51.912;4.388;2022-08-19T00:41:50;101360.16;;;25.85;51.47
21547;BME280;41275;51.912;4.388;2022-08-19T00:47:12;101356.97;;;25.83;51.76
21547;BME280;41275;51.912;4.388;2022-08-19T00:52:35;101358.72;;;25.87;51.79
21547;BME280;41275;51.912;4.388;2022-08-19T00:58:20;101358.56;;;25.92;52.66
21547;BME280;41275;51.912;4.388;2022-08-19T01:03:43;101361.59;;;26.00;53.28
21547;BME280;41275;51.912;4.388;2022-08-19T01:09:05;101361.44;;;26.05;53.39
21547;BME280;41275;51.912;4.388;2022-08-19T01:14:26;101357.31;;;26.07;53.43
21547;BME280;41275;51.912;4.388;2022-08-19T01:19:48;101359.84;;;26.12;53.45
21547;BME280;41275;51.912;4.388;2022-08-19T01:25:09;101367.38;;;26.15;53.63
21547;BME280;41275;51.912;4.388;2022-08-19T01:30:33;101368.31;;;26.11;54.54
21547;BME280;41275;51.912;4.388;2022-08-19T01:36:06;101362.72;;;26.07;54.43
21547;BME280;41275;51.912;4.388;2022-08-19T01:41:27;101373.41;;;26.04;54.44
21547;BME280;41275;51.912;4.388;2022-08-19T01:46:49;101364.31;;;26.08;54.49
21547;BME280;41275;51.912;4.388;2022-08-19T01:52:11;101366.88;;;26.05;54.40
21547;BME280;41275;51.912;4.388;2022-08-19T01:57:32;101358.72;;;26.05;54.73
21547;BME280;41275;51.912;4.388;2022-08-19T02:02:53;101351.88;;;25.99;54.47
21547;BME280;41275;51.912;4.388;2022-08-19T02:08:15;101362.41;;;25.91;54.19
21547;BME280;41275;51.912;4.388;2022-08-19T02:13:36;101361.59;;;25.82;54.21
21547;BME280;41275;51.912;4.388;2022-08-19T02:18:58;101355.81;;;25.75;54.56
21547;BME280;41275;51.912;4.388;2022-08-19T02:24:21;101367.75;;;25.74;54.61
21547;BME280;41275;51.912;4.388;2022-08-19T02:29:42;101363.25;;;25.69;54.42
21547;BME280;41275;51.912;4.388;2022-08-19T02:35:07;101355.91;;;25.61;54.66
21547;BME280;41275;51.912;4.388;2022-08-19T02:40:35;101347.16;;;25.56;54.58
21547;BME280;41275;51.912;4.388;2022-08-19T02:45:56;101340.44;;;25.53;54.95
21547;BME280;41275;51.912;4.388;2022-08-19T02:51:25;101339.47;;;25.58;54.70
21547;BME280;41275;51.912;4.388;2022-08-19T02:56:46;101328.00;;;25.52;55.13
21547;BME280;41275;51.912;4.388;2022-08-19T03:02:07;101332.47;;;25.48;55.23
21547;BME280;41275;51.912;4.388;2022-08-19T03:07:29;101329.41;;;25.41;55.64
21547;BME280;41275;51.912;4.388;2022-08-19T03:12:51;101327.31;;;25.38;55.64
21547;BME280;41275;51.912;4.388;2022-08-19T03:18:13;101333.69;;;25.33;55.58
21547;BME280;41275;51.912;4.388;2022-08-19T03:23:35;101329.22;;;25.29;55.96
21547;BME280;41275;51.912;4.388;2022-08-19T03:28:56;101329.19;;;25.20;55.93
21547;BME280;41275;51.912;4.388;2022-08-19T03:34:24;101318.97;;;25.17;56.15
21547;BME280;41275;51.912;4.388;2022-08-19T03:39:48;101325.41;;;25.07;56.47
21547;BME280;41275;51.912;4.388;2022-08-19T03:45:09;101328.09;;;24.98;56.77
21547;BME280;41275;51.912;4.388;2022-08-19T03:50:31;101327.44;;;24.93;56.90
21547;BME280;41275;51.912;4.388;2022-08-19T03:55:52;101333.81;;;24.97;57.04
21547;BME280;41275;51.912;4.388;2022-08-19T04:01:17;101336.94;;;25.13;56.79
21547;BME280;41275;51.912;4.388;2022-08-19T04:06:39;101340.50;;;25.31;56.45
21547;BME280;41275;51.912;4.388;2022-08-19T04:12:00;101345.19;;;25.39;55.72
21547;BME280;41275;51.912;4.388;2022-08-19T04:17:21;101346.94;;;25.43;55.28
21547;BME280;41275;51.912;4.388;2022-08-19T04:22:43;101348.88;;;25.43;55.53
21547;BME280;41275;51.912;4.388;2022-08-19T04:28:04;101343.75;;;25.41;55.37
21547;BME280;41275;51.912;4.388;2022-08-19T04:33:26;101352.19;;;25.40;55.54
21547;BME280;41275;51.912;4.388;2022-08-19T04:38:49;101341.38;;;25.49;55.48
21547;BME280;41275;51.912;4.388;2022-08-19T04:44:11;101341.84;;;25.42;55.87
21547;BME280;41275;51.912;4.388;2022-08-19T04:49:32;101342.31;;;25.44;55.91
21547;BME280;41275;51.912;4.388;2022-08-19T04:54:53;101348.13;;;25.60;55.73
21547;BME280;41275;51.912;4.388;2022-08-19T05:00:16;101352.75;;;25.68;55.67
21547;BME280;41275;51.912;4.388;2022-08-19T05:05:41;101356.28;;;25.77;55.43
21547;BME280;41275;51.912;4.388;2022-08-19T05:11:25;101366.84;;;25.87;55.36
21547;BME280;41275;51.912;4.388;2022-08-19T05:16:46;101363.97;;;25.92;55.10
21547;BME280;41275;51.912;4.388;2022-08-19T05:22:07;101360.16;;;25.85;54.74
21547;BME280;41275;51.912;4.388;2022-08-19T05:27:47;101361.91;;;25.89;54.99
21547;BME280;41275;51.912;4.388;2022-08-19T05:33:09;101365.09;;;25.91;54.89
21547;BME280;41275;51.912;4.388;2022-08-19T05:38:33;101348.03;;;25.91;54.98
21547;BME280;41275;51.912;4.388;2022-08-19T05:43:56;101347.72;;;26.01;54.77
21547;BME280;41275;51.912;4.388;2022-08-19T05:49:19;101343.59;;;26.04;54.65
21547;BME280;41275;51.912;4.388;2022-08-19T05:54:41;101353.00;;;26.06;54.47
21547;BME280;41275;51.912;4.388;2022-08-19T06:00:05;101356.69;;;26.02;54.69
21547;BME280;41275;51.912;4.388;2022-08-19T06:05:31;101347.09;;;25.95;54.81
21547;BME280;41275;51.912;4.388;2022-08-19T06:10:52;101349.97;;;26.16;54.80
21547;BME280;41275;51.912;4.388;2022-08-19T06:16:13;101350.59;;;26.31;54.63
21547;BME280;41275;51.912;4.388;2022-08-19T06:21:44;101354.59;;;26.42;54.49
21547;BME280;41275;51.912;4.388;2022-08-19T06:27:05;101356.84;;;26.66;54.09
21547;BME280;41275;51.912;4.388;2022-08-19T06:32:27;101349.31;;;26.72;53.94
21547;BME280;41275;51.912;4.388;2022-08-19T06:37:48;101351.03;;;26.85;53.40
21547;BME280;41275;51.912;4.388;2022-08-19T06:43:09;101351.22;;;26.71;53.68
21547;BME280;41275;51.912;4.388;2022-08-19T06:48:31;101353.75;;;26.76;53.57
21547;BME280;41275;51.912;4.388;2022-08-19T06:53:54;101356.13;;;26.86;53.76
21547;BME280;41275;51.912;4.388;2022-08-19T06:59:20;101346.97;;;27.08;53.17
21547;BME280;41275;51.912;4.388;2022-08-19T07:04:42;101356.41;;;27.11;53.17
21547;BME280;41275;51.912;4.388;2022-08-19T07:10:03;101359.72;;;27.25;53.04
21547;BME280;41275;51.912;4.388;2022-08-19T07:15:25;101363.47;;;27.80;52.40
21547;BME280;41275;51.912;4.388;2022-08-19T07:20:47;101369.97;;;27.87;51.43
21547;BME280;41275;51.912;4.388;2022-08-19T07:26:16;101373.88;;;27.69;51.68
21547;BME280;41275;51.912;4.388;2022-08-19T07:31:38;101374.72;;;27.61;52.16
21547;BME280;41275;51.912;4.388;2022-08-19T07:37:00;101372.63;;;27.75;51.90
21547;BME280;41275;51.912;4.388;2022-08-19T07:42:21;101380.22;;;27.82;51.58
21547;BME280;41275;51.912;4.388;2022-08-19T07:48:06;101372.69;;;27.87;51.98
21547;BME280;41275;51.912;4.388;2022-08-19T07:53:31;101375.28;;;28.05;51.54
21547;BME280;41275;51.912;4.388;2022-08-19T07:58:53;101387.38;;;28.37;50.87
21547;BME280;41275;51.912;4.388;2022-08-19T08:04:14;101390.72;;;28.43;50.58
21547;BME280;41275;51.912;4.388;2022-08-19T08:09:54;101391.38;;;28.73;50.18
21547;BME280;41275;51.912;4.388;2022-08-19T08:15:15;101392.38;;;28.68;49.64
21547;BME280;41275;51.912;4.388;2022-08-19T08:20:38;101398.44;;;28.74;49.86
21547;BME280;41275;51.912;4.388;2022-08-19T08:25:59;101399.91;;;28.83;49.66
21547;BME280;41275;51.912;4.388;2022-08-19T08:31:22;101401.09;;;28.95;49.03
21547;BME280;41275;51.912;4.388;2022-08-19T08:36:45;101403.88;;;29.19;48.46
21547;BME280;41275;51.912;4.388;2022-08-19T08:42:22;101409.25;;;29.28;47.84
21547;BME280;41275;51.912;4.388;2022-08-19T08:47:49;101413.66;;;29.20;48.15
21547;BME280;41275;51.912;4.388;2022-08-19T08:53:17;101408.09;;;29.04;47.96
21547;BME280;41275;51.912;4.388;2022-08-19T08:58:58;101416.94;;;29.14;47.49
21547;BME280;41275;51.912;4.388;2022-08-19T09:04:20;101408.22;;;29.32;47.14
21547;BME280;41275;51.912;4.388;2022-08-19T09:09:49;101413.03;;;29.72;45.84
21547;BME280;41275;51.912;4.388;2022-08-19T09:15:13;101414.06;;;29.68;45.29
21547;BME280;41275;51.912;4.388;2022-08-19T09:20:38;101427.88;;;29.38;45.81
21547;BME280;41275;51.912;4.388;2022-08-19T09:25:59;101428.91;;;29.33;46.25
21547;BME280;41275;51.912;4.388;2022-08-19T09:31:26;101429.41;;;29.72;45.12
21547;BME280;41275;51.912;4.388;2022-08-19T09:36:49;101432.13;;;29.60;45.30
21547;BME280;41275;51.912;4.388;2022-08-19T09:42:13;101428.59;;;29.84;45.02
21547;BME280;41275;51.912;4.388;2022-08-19T09:47:38;101432.09;;;29.97;44.23
21547;BME280;41275;51.912;4.388;2022-08-19T09:53:01;101433.22;;;30.20;44.05
21547;BME280;41275;51.912;4.388;2022-08-19T09:58:23;101436.13;;;30.40;43.61
21547;BME280;41275;51.912;4.388;2022-08-19T10:03:53;101435.59;;;30.62;43.08
21547;BME280;41275;51.912;4.388;2022-08-19T10:09:16;101448.28;;;30.83;41.82
21547;BME280;41275;51.912;4.388;2022-08-19T10:14:38;101439.88;;;30.75;42.34
21547;BME280;41275;51.912;4.388;2022-08-19T10:19:59;101432.97;;;30.94;42.16
21547;BME280;41275;51.912;4.388;2022-08-19T10:25:21;101427.41;;;31.06;42.18
21547;BME280;41275;51.912;4.388;2022-08-19T10:30:42;101442.25;;;31.05;41.90
21547;BME280;41275;51.912;4.388;2022-08-19T10:36:07;101435.66;;;30.78;42.37
21547;BME280;41275;51.912;4.388;2022-08-19T10:41:34;101425.09;;;30.36;42.84
21547;BME280;41275;51.912;4.388;2022-08-19T10:46:56;101433.81;;;30.42;43.09
21547;BME280;41275;51.912;4.388;2022-08-19T10:52:17;101429.66;;;30.60;42.67
21547;BME280;41275;51.912;4.388;2022-08-19T10:57:57;101437.00;;;31.00;42.07
21547;BME280;41275;51.912;4.388;2022-08-19T11:03:19;101428.47;;;30.86;41.86
21547;BME280;41275;51.912;4.388;2022-08-19T11:08:40;101427.03;;;30.36;42.76
21547;BME280;41275;51.912;4.388;2022-08-19T11:14:02;101427.88;;;30.24;43.07
21547;BME280;41275;51.912;4.388;2022-08-19T11:19:24;101426.09;;;30.44;42.69
21547;BME280;41275;51.912;4.388;2022-08-19T11:24:46;101434.44;;;30.63;42.70
21547;BME280;41275;51.912;4.388;2022-08-19T11:30:07;101433.25;;;30.76;41.85
21547;BME280;41275;51.912;4.388;2022-08-19T11:35:29;101435.22;;;30.64;42.02
21547;BME280;41275;51.912;4.388;2022-08-19T11:40:57;101432.69;;;30.71;42.00
21547;BME280;41275;51.912;4.388;2022-08-19T11:46:19;101438.63;;;31.01;41.91
21547;BME280;41275;51.912;4.388;2022-08-19T11:51:41;101433.69;;;31.22;41.86
21547;BME280;41275;51.912;4.388;2022-08-19T11:57:06;101433.59;;;31.19;41.88
21547;BME280;41275;51.912;4.388;2022-08-19T12:02:27;101437.28;;;31.11;42.02
21547;BME280;41275;51.912;4.388;2022-08-19T12:07:48;101447.78;;;29.63;45.89
21547;BME280;41275;51.912;4.388;2022-08-19T12:13:10;101439.41;;;29.80;47.14
21547;BME280;41275;51.912;4.388;2022-08-19T12:18:31;101443.22;;;30.56;45.75
21547;BME280;41275;51.912;4.388;2022-08-19T12:23:56;101443.84;;;31.22;44.62
21547;BME280;41275;51.912;4.388;2022-08-19T12:29:17;101440.56;;;31.80;43.76
21547;BME280;41275;51.912;4.388;2022-08-19T12:34:39;101426.31;;;32.06;42.61
21547;BME280;41275;51.912;4.388;2022-08-19T12:40:00;101423.34;;;32.14;42.06
21547;BME280;41275;51.912;4.388;2022-08-19T12:45:21;101422.75;;;32.60;41.22
21547;BME280;41275;51.912;4.388;2022-08-19T12:50:45;101426.66;;;33.01;39.83
21547;BME280;41275;51.912;4.388;2022-08-19T12:56:08;101422.34;;;33.99;38.13
21547;BME280;41275;51.912;4.388;2022-08-19T13:01:30;101411.44;;;34.06;37.04
21547;BME280;41275;51.912;4.388;2022-08-19T13:06:53;101416.13;;;34.36;35.89
21547;BME280;41275;51.912;4.388;2022-08-19T13:12:14;101412.81;;;34.53;36.02
21547;BME280;41275;51.912;4.388;2022-08-19T13:17:36;101416.09;;;34.66;35.40
21547;BME280;41275;51.912;4.388;2022-08-19T13:22:57;101419.63;;;34.33;35.47
21547;BME280;41275;51.912;4.388;2022-08-19T13:28:19;101406.66;;;33.23;37.06
21547;BME280;41275;51.912;4.388;2022-08-19T13:33:40;101407.25;;;32.48;38.58
21547;BME280;41275;51.912;4.388;2022-08-19T13:39:02;101408.00;;;32.10;39.57
21547;BME280;41275;51.912;4.388;2022-08-19T13:44:23;101402.44;;;32.06;39.50
21547;BME280;41275;51.912;4.388;2022-08-19T13:49:47;101412.78;;;31.62;40.82
21547;BME280;41275;51.912;4.388;2022-08-19T13:55:11;101417.66;;;31.21;41.88
21547;BME280;41275;51.912;4.388;2022-08-19T14:00:35;101419.41;;;29.64;47.83
21547;BME280;41275;51.912;4.388;2022-08-19T14:05:57;101404.41;;;29.00;50.46
21547;BME280;41275;51.912;4.388;2022-08-19T14:11:19;101408.78;;;30.96;49.04
21547;BME280;41275;51.912;4.388;2022-08-19T14:16:40;101404.53;;;32.90;43.25
21547;BME280;41275;51.912;4.388;2022-08-19T14:22:01;101405.31;;;31.94;43.55
21547;BME280;41275;51.912;4.388;2022-08-19T14:27:22;101404.00;;;30.77;45.52
21547;BME280;41275;51.912;4.388;2022-08-19T14:32:46;101397.28;;;30.18;47.37
21547;BME280;41275;51.912;4.388;2022-08-19T14:38:15;101402.47;;;29.83;48.93
21547;BME280;41275;51.912;4.388;2022-08-19T14:43:37;101396.63;;;29.35;50.66
21547;BME280;41275;51.912;4.388;2022-08-19T14:48:59;101395.28;;;29.66;50.94
21547;BME280;41275;51.912;4.388;2022-08-19T14:54:21;101396.66;;;29.72;49.47
21547;BME280;41275;51.912;4.388;2022-08-19T14:59:43;101397.69;;;29.55;49.17
21547;BME280;41275;51.912;4.388;2022-08-19T15:05:05;101414.38;;;29.66;49.34
21547;BME280;41275;51.912;4.388;2022-08-19T15:10:26;101411.34;;;31.04;47.00
21547;BME280;41275;51.912;4.388;2022-08-19T15:15:48;101417.94;;;30.31;46.84
21547;BME280;41275;51.912;4.388;2022-08-19T15:21:10;101425.28;;;29.66;48.06
21547;BME280;41275;51.912;4.388;2022-08-19T15:26:33;101429.47;;;29.51;48.39
21547;BME280;41275;51.912;4.388;2022-08-19T15:31:54;101433.22;;;29.47;48.31
21547;BME280;41275;51.912;4.388;2022-08-19T15:37:17;101436.16;;;29.17;48.83
21547;BME280;41275;51.912;4.388;2022-08-19T15:42:39;101427.97;;;28.96;49.53
21547;BME280;41275;51.912;4.388;2022-08-19T15:48:03;101439.69;;;28.63;50.10
21547;BME280;41275;51.912;4.388;2022-08-19T15:53:25;101446.56;;;28.82;50.56
21547;BME280;41275;51.912;4.388;2022-08-19T15:58:46;101435.31;;;29.04;49.19
21547;BME280;41275;51.912;4.388;2022-08-19T16:04:26;101434.69;;;29.32;48.56
21547;BME280;41275;51.912;4.388;2022-08-19T16:10:06;101435.50;;;30.59;46.28
21547;BME280;41275;51.912;4.388;2022-08-19T16:15:29;101439.63;;;31.24;44.75
21547;BME280;41275;51.912;4.388;2022-08-19T16:20:50;101434.72;;;30.86;44.94
21547;BME280;41275;51.912;4.388;2022-08-19T16:26:13;101428.56;;;31.05;44.62
21547;BME280;41275;51.912;4.388;2022-08-19T16:31:36;101428.59;;;30.77;44.85
21547;BME280;41275;51.912;4.388;2022-08-19T16:36:57;101430.09;;;30.74;44.95
21547;BME280;41275;51.912;4.388;2022-08-19T16:42:19;101424.00;;;30.53;45.51
21547;BME280;41275;51.912;4.388;2022-08-19T16:47:40;101437.25;;;30.79;44.41
21547;BME280;41275;51.912;4.388;2022-08-19T16:53:02;101426.09;;;30.44;44.92
21547;BME280;41275;51.912;4.388;2022-08-19T16:58:25;101428.13;;;30.19;44.69
21547;BME280;41275;51.912;4.388;2022-08-19T17:03:49;101434.28;;;29.91;45.14
21547;BME280;41275;51.912;4.388;2022-08-19T17:09:12;101423.47;;;29.82;45.27
21547;BME280;41275;51.912;4.388;2022-08-19T17:14:35;101422.13;;;29.76;45.67
21547;BME280;41275;51.912;4.388;2022-08-19T17:19:59;101427.75;;;29.47;46.22
21547;BME280;41275;51.912;4.388;2022-08-19T17:25:20;101439.84;;;29.00;47.28
21547;BME280;41275;51.912;4.388;2022-08-19T17:30:42;101426.78;;;28.73;47.75
21547;BME280;41275;51.912;4.388;2022-08-19T17:36:04;101440.44;;;28.52;48.55
21547;BME280;41275;51.912;4.388;2022-08-19T17:41:27;101443.56;;;28.33;48.83
21547;BME280;41275;51.912;4.388;2022-08-19T17:46:48;101449.16;;;28.16;49.18
21547;BME280;41275;51.912;4.388;2022-08-19T17:52:09;101452.66;;;28.16;49.50
21547;BME280;41275;51.912;4.388;2022-08-19T17:57:32;101460.25;;;28.10;49.56
21547;BME280;41275;51.912;4.388;2022-08-19T18:02:56;101457.31;;;28.16;49.74
21547;BME280;41275;51.912;4.388;2022-08-19T18:08:17;101463.94;;;28.06;49.89
21547;BME280;41275;51.912;4.388;2022-08-19T18:13:39;101461.22;;;28.06;49.53
21547;BME280;41275;51.912;4.388;2022-08-19T18:19:03;101464.13;;;28.01;49.36
21547;BME280;41275;51.912;4.388;2022-08-19T18:24:24;101470.75;;;27.91;50.06
21547;BME280;41275;51.912;4.388;2022-08-19T18:29:46;101482.47;;;27.83;50.44
21547;BME280;41275;51.912;4.388;2022-08-19T18:35:11;101485.00;;;27.88;50.35
21547;BME280;41275;51.912;4.388;2022-08-19T18:40:32;101487.22;;;27.95;50.06
21547;BME280;41275;51.912;4.388;2022-08-19T18:46:12;101498.56;;;27.97;50.03
21547;BME280;41275;51.912;4.388;2022-08-19T18:51:52;101493.13;;;27.97;50.18
21547;BME280;41275;51.912;4.388;2022-08-19T18:57:14;101506.22;;;28.03;50.52
21547;BME280;41275;51.912;4.388;2022-08-19T19:02:36;101511.69;;;27.95;50.36
21547;BME280;41275;51.912;4.388;2022-08-19T19:08:01;101526.78;;;27.83;49.91
21547;BME280;41275;51.912;4.388;2022-08-19T19:13:22;101530.34;;;27.75;50.01
21547;BME280;41275;51.912;4.388;2022-08-19T19:18:43;101534.31;;;27.78;49.75
21547;BME280;41275;51.912;4.388;2022-08-19T19:24:05;101535.09;;;27.78;49.69
21547;BME280;41275;51.912;4.388;2022-08-19T19:29:28;101547.13;;;27.77;50.05
21547;BME280;41275;51.912;4.388;2022-08-19T19:34:50;101548.41;;;27.80;49.91
21547;BME280;41275;51.912;4.388;2022-08-19T19:40:11;101546.78;;;27.70;49.97
21547;BME280;41275;51.912;4.388;2022-08-19T19:45:33;101552.22;;;27.70;50.34
21547;BME280;41275;51.912;4.388;2022-08-19T19:50:54;101539.44;;;27.71;50.60
21547;BME280;41275;51.912;4.388;2022-08-19T19:56:16;101541.81;;;27.72;50.63
21547;BME280;41275;51.912;4.388;2022-08-19T20:01:37;101537.19;;;27.73;50.96
21547;BME280;41275;51.912;4.388;2022-08-19T20:06:58;101526.50;;;27.76;51.13
21547;BME280;41275;51.912;4.388;2022-08-19T20:12:19;101533.31;;;27.82;50.90
21547;BME280;41275;51.912;4.388;2022-08-19T20:17:41;101534.16;;;27.74;50.71
21547;BME280;41275;51.912;4.388;2022-08-19T20:23:02;101537.69;;;27.66;50.98
21547;BME280;41275;51.912;4.388;2022-08-19T20:28:24;101526.94;;;27.70;50.87
21547;BME280;41275;51.912;4.388;2022-08-19T20:33:45;101523.28;;;27.65;51.20
21547;BME280;41275;51.912;4.388;2022-08-19T20:39:07;101530.31;;;27.66;51.57
21547;BME280;41275;51.912;4.388;2022-08-19T20:44:28;101533.53;;;27.69;51.64
21547;BME280;41275;51.912;4.388;2022-08-19T20:49:49;101525.50;;;27.72;51.61
21547;BME280;41275;51.912;4.388;2022-08-19T20:55:11;101535.41;;;27.85;51.45
21547;BME280;41275;51.912;4.388;2022-08-19T21:00:33;101531.59;;;27.69;51.76
21547;BME280;41275;51.912;4.388;2022-08-19T21:05:55;101542.50;;;27.60;51.44
21547;BME280;41275;51.912;4.388;2022-08-19T21:11:19;101536.47;;;27.46;51.77
21547;BME280;41275;51.912;4.388;2022-08-19T21:16:40;101540.81;;;27.30;51.52
21547;BME280;41275;51.912;4.388;2022-08-19T21:22:04;101540.31;;;27.02;51.88
21547;BME280;41275;51.912;4.388;2022-08-19T21:27:26;101527.22;;;26.78;52.54
21547;BME280;41275;51.912;4.388;2022-08-19T21:32:47;101519.88;;;26.78;52.43
21547;BME280;41275;51.912;4.388;2022-08-19T21:38:08;101523.56;;;26.82;51.88
21547;BME280;41275;51.912;4.388;2022-08-19T21:43:29;101534.91;;;26.84;52.15
21547;BME280;41275;51.912;4.388;2022-08-19T21:48:51;101535.69;;;26.93;51.21
21547;BME280;41275;51.912;4.388;2022-08-19T21:54:12;101526.59;;;26.98;50.70
21547;BME280;41275;51.912;4.388;2022-08-19T21:59:33;101522.28;;;26.97;50.24
21547;BME280;41275;51.912;4.388;2022-08-19T22:04:55;101539.19;;;27.03;50.34
21547;BME280;41275;51.912;4.388;2022-08-19T22:10:16;101541.31;;;27.14;50.01
21547;BME280;41275;51.912;4.388;2022-08-19T22:15:41;101552.47;;;26.96;50.06
21547;BME280;41275;51.912;4.388;2022-08-19T22:21:02;101551.66;;;27.04;50.16
21547;BME280;41275;51.912;4.388;2022-08-19T22:26:24;101544.00;;;26.97;50.65
21547;BME280;41275;51.912;4.388;2022-08-19T22:31:45;101556.13;;;27.00;50.68
21547;BME280;41275;51.912;4.388;2022-08-19T22:37:06;101544.78;;;27.06;50.66
21547;BME280;41275;51.912;4.388;2022-08-19T22:42:28;101544.66;;;26.94;51.17
21547;BME280;41275;51.912;4.388;2022-08-19T22:47:51;101544.00;;;26.80;51.06
21547;BME280;41275;51.912;4.388;2022-08-19T22:53:12;101534.88;;;26.67;51.47
21547;BME280;41275;51.912;4.388;2022-08-19T22:58:34;101537.59;;;26.58;51.95
21547;BME280;41275;51.912;4.388;2022-08-19T23:03:58;101536.63;;;26.46;52.19
21547;BME280;41275;51.912;4.388;2022-08-19T23:09:19;101547.09;;;26.38;52.62
21547;BME280;41275;51.912;4.388;2022-08-19T23:14:42;101544.84;;;26.32;53.00
21547;BME280;41275;51.912;4.388;2022-08-19T23:20:04;101544.06;;;26.40;52.97
21547;BME280;41275;51.912;4.388;2022-08-19T23:25:28;101541.53;;;26.43;52.79
21547;BME280;41275;51.912;4.388;2022-08-19T23:30:52;101548.13;;;26.51;52.42
21547;BME280;41275;51.912;4.388;2022-08-19T23:36:15;101543.34;;;26.57;52.24
21547;BME280;41275;51.912;4.388;2022-08-19T23:41:37;101547.81;;;26.53;52.37
21547;BME280;41275;51.912;4.388;2022-08-19T23:46:58;101554.03;;;26.53;52.31
21547;BME280;41275;51.912;4.388;2022-08-19T23:52:19;101556.03;;;26.39;52.78
21547;BME280;41275;51.912;4.388;2022-08-19T23:57:41;101551.56;;;26.34;53.19
